createdAt,value
2019-02-27T00:00:05.928Z,33.20
2019-02-27T00:02:34.175Z,33.20
2019-02-27T00:05:02.406Z,33.20
2019-02-27T00:07:30.637Z,33.20
2019-02-27T00:09:58.853Z,33.20
2019-02-27T00:12:27.064Z,33.30
2019-02-27T00:14:55.317Z,33.30
2019-02-27T00:17:23.568Z,33.30
2019-02-27T00:19:51.780Z,33.30
2019-02-27T00:22:20.269Z,33.30
2019-02-27T00:24:48.499Z,33.30
2019-02-27T00:27:16.724Z,33.40
2019-02-27T00:29:44.968Z,33.40
2019-02-27T00:32:13.232Z,33.40
2019-02-27T00:34:41.435Z,33.50
2019-02-27T00:37:09.652Z,33.50
2019-02-27T00:39:37.895Z,33.50
2019-02-27T00:42:06.142Z,33.50
2019-02-27T00:44:34.896Z,33.50
2019-02-27T00:47:03.186Z,33.60
2019-02-27T00:49:32.361Z,33.60
2019-02-27T00:52:01.211Z,33.60
2019-02-27T00:54:31.498Z,33.70
2019-02-27T00:56:59.421Z,34.30
2019-02-27T00:59:27.688Z,33.80
2019-02-27T01:01:55.932Z,33.80
2019-02-27T01:04:24.164Z,33.70
2019-02-27T01:06:52.687Z,33.70
2019-02-27T01:09:20.896Z,33.70
2019-02-27T01:11:51.802Z,33.80
2019-02-27T01:14:19.079Z,33.70
2019-02-27T01:16:47.755Z,33.80
2019-02-27T01:19:17.265Z,33.90
2019-02-27T01:21:45.520Z,33.80
2019-02-27T01:24:14.958Z,33.90
2019-02-27T01:26:43.709Z,33.90
2019-02-27T01:29:11.948Z,34.00
2019-02-27T01:31:40.189Z,33.90
2019-02-27T01:34:11.195Z,34.00
2019-02-27T01:36:38.623Z,34.00
2019-02-27T01:39:08.949Z,34.60
2019-02-27T01:41:37.651Z,34.00
2019-02-27T01:44:05.886Z,34.10
2019-02-27T01:46:34.100Z,34.00
2019-02-27T01:49:02.328Z,34.10
2019-02-27T01:51:30.787Z,34.10
2019-02-27T01:53:59.039Z,34.10
2019-02-27T01:56:29.088Z,34.20
2019-02-27T01:58:57.217Z,34.10
2019-02-27T02:01:29.851Z,34.20
2019-02-27T02:03:55.403Z,34.20
2019-02-27T02:06:23.625Z,34.20
2019-02-27T02:09:07.240Z,34.20
2019-02-27T02:11:35.673Z,34.20
2019-02-27T02:14:22.116Z,34.30
2019-02-27T02:17:02.180Z,34.30
2019-02-27T02:19:42.560Z,34.30
2019-02-27T02:22:16.949Z,34.30
2019-02-27T02:25:03.359Z,34.40
2019-02-27T02:27:46.544Z,34.50
2019-02-27T02:30:35.905Z,34.50
2019-02-27T02:33:07.624Z,34.50
2019-02-27T02:35:53.926Z,34.60
2019-02-27T02:38:37.031Z,34.60
2019-02-27T02:41:11.729Z,34.50
2019-02-27T02:43:51.568Z,34.60
2019-02-27T02:46:23.059Z,34.60
2019-02-27T02:49:06.476Z,34.50
2019-02-27T02:51:33.531Z,34.60
2019-02-27T02:54:07.924Z,34.50
2019-02-27T02:57:00.085Z,34.60
2019-02-27T02:59:45.540Z,34.60
2019-02-27T03:02:23.496Z,34.60
2019-02-27T03:05:23.660Z,34.70
2019-02-27T03:07:55.076Z,34.70
2019-02-27T03:10:26.557Z,34.70
2019-02-27T03:13:07.435Z,34.70
2019-02-27T03:15:41.807Z,34.70
2019-02-27T03:18:18.813Z,34.70
2019-02-27T03:21:04.956Z,34.70
2019-02-27T03:23:36.429Z,35.40
2019-02-27T03:26:17.775Z,34.70
2019-02-27T03:29:15.800Z,34.80
2019-02-27T03:32:05.266Z,34.80
2019-02-27T03:35:05.381Z,34.90
2019-02-27T03:37:48.381Z,34.80
2019-02-27T03:40:39.457Z,34.80
2019-02-27T03:43:16.781Z,34.90
2019-02-27T03:45:57.188Z,34.90
2019-02-27T03:48:43.713Z,34.90
2019-02-27T03:51:15.188Z,34.90
2019-02-27T03:53:52.326Z,34.90
2019-02-27T03:56:47.472Z,34.90
2019-02-27T03:59:42.430Z,34.90
2019-02-27T04:02:18.773Z,34.90
2019-02-27T04:05:07.111Z,35.00
2019-02-27T04:07:46.865Z,35.00
2019-02-27T04:10:15.137Z,35.00
2019-02-27T04:12:43.391Z,35.00
2019-02-27T04:15:11.609Z,35.00
2019-02-27T04:17:39.184Z,35.00
2019-02-27T04:20:07.391Z,35.00
2019-02-27T04:22:37.471Z,35.10
2019-02-27T04:25:07.736Z,35.10
2019-02-27T04:27:36.225Z,35.10
2019-02-27T04:30:06.083Z,35.10
2019-02-27T04:32:34.302Z,35.10
2019-02-27T04:35:05.915Z,35.10
2019-02-27T04:37:32.514Z,35.20
2019-02-27T04:40:00.835Z,35.20
2019-02-27T04:42:29.072Z,35.30
2019-02-27T04:44:57.303Z,35.20
2019-02-27T04:47:28.851Z,35.20
2019-02-27T04:49:55.512Z,35.20
2019-02-27T04:52:24.385Z,35.20
2019-02-27T04:54:53.175Z,35.30
2019-02-27T04:57:21.393Z,35.20
2019-02-27T04:59:52.329Z,35.20
2019-02-27T05:02:20.356Z,35.20
2019-02-27T05:04:49.377Z,35.20
2019-02-27T05:07:20.100Z,35.30
2019-02-27T05:09:47.560Z,35.20
2019-02-27T05:12:15.799Z,35.20
2019-02-27T05:14:44.044Z,35.20
2019-02-27T05:17:12.496Z,35.20
2019-02-27T05:19:40.740Z,35.20
2019-02-27T05:22:08.956Z,35.20
2019-02-27T05:24:40.610Z,35.30
2019-02-27T05:27:07.172Z,35.30
2019-02-27T05:29:37.554Z,35.40
2019-02-27T05:32:05.352Z,35.30
2019-02-27T05:34:33.594Z,35.30
2019-02-27T05:37:05.090Z,35.30
2019-02-27T05:39:33.766Z,35.30
2019-02-27T05:42:06.095Z,35.40
2019-02-27T05:44:31.664Z,35.40
2019-02-27T05:46:59.909Z,35.40
2019-02-27T05:49:28.131Z,35.40
2019-02-27T05:51:56.348Z,35.40
2019-02-27T05:54:24.592Z,35.40
2019-02-27T05:56:52.821Z,35.40
2019-02-27T05:59:21.066Z,35.40
2019-02-27T06:01:49.344Z,35.40
2019-02-27T06:04:18.172Z,35.50
2019-02-27T06:06:46.471Z,35.50
2019-02-27T06:09:14.975Z,35.50
2019-02-27T06:11:43.424Z,35.50
2019-02-27T06:14:11.640Z,35.50
2019-02-27T06:16:40.790Z,35.50
2019-02-27T06:19:09.176Z,35.60
2019-02-27T06:21:38.885Z,35.60
2019-02-27T06:24:11.495Z,35.50
2019-02-27T06:26:37.376Z,35.60
2019-02-27T06:29:05.651Z,35.60
2019-02-27T06:31:36.858Z,35.60
2019-02-27T06:34:03.848Z,35.60
2019-02-27T06:36:32.072Z,35.60
2019-02-27T06:39:00.939Z,35.60
2019-02-27T06:41:29.235Z,35.60
2019-02-27T06:43:58.977Z,35.60
2019-02-27T06:46:27.427Z,35.60
2019-02-27T06:48:56.485Z,35.60
2019-02-27T06:51:24.824Z,35.70
2019-02-27T06:53:53.063Z,35.60
2019-02-27T06:56:21.279Z,35.70
2019-02-27T06:58:50.102Z,35.70
2019-02-27T07:01:18.912Z,35.60
2019-02-27T07:03:48.069Z,35.60
2019-02-27T07:06:21.207Z,35.70
2019-02-27T07:08:46.740Z,35.60
2019-02-27T07:11:14.992Z,35.70
2019-02-27T07:13:43.231Z,35.70
2019-02-27T07:16:11.480Z,35.70
2019-02-27T07:18:41.743Z,35.70
2019-02-27T07:21:09.722Z,35.60
2019-02-27T07:23:37.956Z,35.60
2019-02-27T07:26:06.169Z,35.60
2019-02-27T07:28:34.408Z,35.60
2019-02-27T07:31:02.634Z,35.60
2019-02-27T07:33:30.872Z,35.60
2019-02-27T07:36:03.307Z,35.60
2019-02-27T07:38:29.024Z,35.60
2019-02-27T07:40:57.277Z,35.50
2019-02-27T07:43:25.528Z,35.50
2019-02-27T07:45:54.391Z,35.50
2019-02-27T07:48:22.728Z,35.50
2019-02-27T07:50:51.216Z,35.50
2019-02-27T07:53:19.469Z,35.60
2019-02-27T07:55:47.705Z,35.50
2019-02-27T07:58:15.938Z,35.50
2019-02-27T08:00:47.094Z,35.50
2019-02-27T08:03:14.268Z,36.30
2019-02-27T08:05:42.810Z,35.80
2019-02-27T08:08:11.321Z,35.80
2019-02-27T08:10:39.570Z,35.80
2019-02-27T08:13:07.828Z,35.80
2019-02-27T08:15:36.320Z,35.80
2019-02-27T08:18:04.696Z,35.80
2019-02-27T08:20:33.052Z,35.80
2019-02-27T08:23:01.546Z,35.80
2019-02-27T08:25:29.910Z,35.80
2019-02-27T08:27:58.189Z,35.70
2019-02-27T08:30:27.933Z,35.70
2019-02-27T08:32:56.190Z,35.70
2019-02-27T08:35:24.473Z,35.70
2019-02-27T08:38:01.886Z,35.70
2019-02-27T08:40:25.120Z,35.70
2019-02-27T08:42:52.685Z,35.70
2019-02-27T08:45:21.006Z,35.60
2019-02-27T08:47:49.377Z,35.60
2019-02-27T08:50:18.718Z,35.60
2019-02-27T08:52:50.549Z,35.50
2019-02-27T08:55:22.066Z,35.40
2019-02-27T08:57:49.910Z,35.40
2019-02-27T09:00:23.068Z,35.40
2019-02-27T09:02:50.891Z,36.00
2019-02-27T09:05:20.070Z,35.30
2019-02-27T09:07:49.180Z,35.30
2019-02-27T09:10:18.972Z,35.20
2019-02-27T09:12:48.878Z,35.10
2019-02-27T09:15:17.686Z,35.10
2019-02-27T09:17:45.933Z,35.00
2019-02-27T09:20:19.649Z,34.90
2019-02-27T09:22:47.101Z,34.90
2019-02-27T09:25:15.376Z,34.80
2019-02-27T09:27:43.641Z,34.80
2019-02-27T09:30:22.487Z,34.70
2019-02-27T09:32:51.018Z,34.70
2019-02-27T09:35:19.277Z,34.70
2019-02-27T09:37:48.425Z,34.70
2019-02-27T09:40:29.520Z,34.60
2019-02-27T09:42:58.126Z,34.60
2019-02-27T09:45:29.715Z,34.60
2019-02-27T09:48:00.008Z,34.60
2019-02-27T09:50:42.369Z,34.60
2019-02-27T09:53:10.630Z,34.60
2019-02-27T09:55:39.141Z,34.60
2019-02-27T09:58:11.134Z,34.60
2019-02-27T10:00:43.269Z,34.60
2019-02-27T10:03:11.784Z,34.50
2019-02-27T10:05:40.890Z,34.50
2019-02-27T10:08:09.720Z,34.60
2019-02-27T10:10:38.213Z,34.50
2019-02-27T10:13:06.481Z,34.50
2019-02-27T10:15:34.738Z,34.40
2019-02-27T10:18:02.992Z,34.50
2019-02-27T10:20:31.256Z,34.40
2019-02-27T10:22:59.534Z,34.40
2019-02-27T10:25:27.793Z,34.40
2019-02-27T10:27:56.045Z,34.40
2019-02-27T10:30:24.294Z,34.30
2019-02-27T10:32:52.552Z,34.50
2019-02-27T10:35:20.805Z,34.30
2019-02-27T10:37:51.054Z,34.20
2019-02-27T10:40:23.730Z,34.10
2019-02-27T10:42:52.001Z,34.00
2019-02-27T10:45:20.250Z,33.90
2019-02-27T10:47:48.510Z,34.00
2019-02-27T10:50:16.826Z,34.00
2019-02-27T10:52:45.080Z,34.00
2019-02-27T10:55:15.728Z,34.00
2019-02-27T10:57:44.223Z,34.00
2019-02-27T11:00:19.578Z,34.60
2019-02-27T11:02:48.558Z,33.90
2019-02-27T11:05:17.807Z,34.60
2019-02-27T11:07:46.671Z,33.90
2019-02-27T11:10:15.318Z,33.90
2019-02-27T11:12:43.585Z,33.80
2019-02-27T11:15:14.678Z,33.70
2019-02-27T11:17:43.183Z,33.60
2019-02-27T11:20:12.161Z,33.50
2019-02-27T11:22:40.429Z,33.40
2019-02-27T11:25:12.013Z,33.40
2019-02-27T11:27:40.286Z,33.30
2019-02-27T11:30:11.641Z,33.20
2019-02-27T11:32:39.911Z,33.20
2019-02-27T11:35:08.154Z,33.10
2019-02-27T11:37:36.430Z,33.00
2019-02-27T11:40:08.457Z,33.00
2019-02-27T11:42:36.816Z,32.80
2019-02-27T11:45:08.419Z,32.80
2019-02-27T11:47:36.674Z,32.70
2019-02-27T11:50:08.227Z,33.30
2019-02-27T11:52:36.721Z,32.60
2019-02-27T11:55:08.207Z,32.60
2019-02-27T11:57:36.852Z,32.60
2019-02-27T12:00:10.541Z,32.50
2019-02-27T12:02:38.806Z,32.50
2019-02-27T12:05:10.089Z,32.50
2019-02-27T12:07:38.356Z,32.50
2019-02-27T12:10:09.802Z,32.50
2019-02-27T12:12:38.065Z,32.60
2019-02-27T12:15:09.853Z,32.60
2019-02-27T12:17:38.134Z,32.80
2019-02-27T12:20:08.344Z,32.90
2019-02-27T12:22:36.665Z,32.90
2019-02-27T12:25:07.467Z,32.90
2019-02-27T12:27:48.514Z,32.80
2019-02-27T12:30:14.569Z,32.70
2019-02-27T12:32:42.858Z,32.80
2019-02-27T12:35:16.047Z,32.80
2019-02-27T12:37:44.352Z,32.80
2019-02-27T12:40:15.669Z,32.70
2019-02-27T12:42:44.170Z,32.60
2019-02-27T12:45:14.835Z,32.60
2019-02-27T12:47:43.137Z,30.40
2019-02-27T12:50:13.830Z,28.70
2019-02-27T12:52:44.511Z,27.30
2019-02-27T12:55:12.609Z,26.30
2019-02-27T12:57:40.881Z,25.60
2019-02-27T13:00:12.265Z,25.00
2019-02-27T13:02:40.544Z,24.60
2019-02-27T13:05:11.347Z,24.50
2019-02-27T13:07:42.187Z,24.70
2019-02-27T13:10:13.336Z,23.10
2019-02-27T13:12:41.710Z,21.70
2019-02-27T13:15:12.757Z,20.80
2019-02-27T13:17:41.294Z,20.10
2019-02-27T13:20:17.812Z,19.80
2019-02-27T13:22:46.089Z,19.70
2019-02-27T13:25:14.614Z,19.40
2019-02-27T13:27:43.317Z,19.00
2019-02-27T13:30:16.855Z,18.70
2019-02-27T13:32:45.122Z,19.10
2019-02-27T13:35:15.007Z,19.50
2019-02-27T13:37:44.522Z,19.50
2019-02-27T13:40:21.309Z,20.10
2019-02-27T13:42:52.281Z,20.50
2019-02-27T13:45:27.598Z,20.40
2019-02-27T13:47:55.886Z,20.40
2019-02-27T13:50:26.663Z,20.80
2019-02-27T13:52:54.377Z,20.90
2019-02-27T13:55:23.291Z,20.20
2019-02-27T13:57:51.632Z,20.80
2019-02-27T14:00:28.881Z,20.80
2019-02-27T14:02:57.175Z,20.80
2019-02-27T14:05:25.528Z,20.60
2019-02-27T14:07:57.088Z,20.50
2019-02-27T14:10:29.946Z,20.30
2019-02-27T14:12:58.212Z,20.10
2019-02-27T14:15:27.225Z,20.40
2019-02-27T14:17:56.670Z,20.20
2019-02-27T14:20:26.879Z,20.10
2019-02-27T14:22:55.024Z,20.50
2019-02-27T14:25:33.062Z,20.40
2019-02-27T14:28:00.378Z,20.20
2019-02-27T14:30:48.223Z,20.70
2019-02-27T14:33:19.346Z,20.60
2019-02-27T14:35:46.468Z,20.20
2019-02-27T14:38:14.725Z,20.40
2019-02-27T14:40:43.013Z,20.80
2019-02-27T14:43:11.287Z,21.30
2019-02-27T14:45:40.873Z,21.50
2019-02-27T14:48:09.302Z,21.20
2019-02-27T14:50:37.829Z,21.10
2019-02-27T14:53:06.102Z,21.20
2019-02-27T14:55:35.953Z,21.00
2019-02-27T14:58:04.325Z,21.30
2019-02-27T15:00:40.029Z,21.60
2019-02-27T15:03:06.896Z,20.80
2019-02-27T15:05:36.820Z,21.00
2019-02-27T15:08:05.134Z,20.40
2019-02-27T15:10:33.387Z,20.90
2019-02-27T15:13:01.988Z,20.60
2019-02-27T15:15:31.413Z,20.00
2019-02-27T15:17:59.735Z,20.70
2019-02-27T15:20:28.946Z,20.60
2019-02-27T15:22:57.482Z,21.00
2019-02-27T15:25:27.661Z,20.40
2019-02-27T15:27:58.721Z,20.50
2019-02-27T15:30:28.717Z,20.40
2019-02-27T15:32:56.973Z,20.20
2019-02-27T15:35:25.492Z,20.60
2019-02-27T15:37:53.774Z,20.80
2019-02-27T15:40:28.644Z,20.80
2019-02-27T15:42:55.082Z,20.80
2019-02-27T15:45:24.284Z,20.90
2019-02-27T15:47:52.539Z,20.90
2019-02-27T15:50:26.181Z,20.90
2019-02-27T15:52:54.453Z,21.00
2019-02-27T15:55:22.705Z,20.80
2019-02-27T15:57:53.748Z,20.90
2019-02-27T16:00:22.633Z,20.20
2019-02-27T16:02:50.997Z,20.00
2019-02-27T16:05:19.355Z,19.90
2019-02-27T16:07:49.439Z,20.10
2019-02-27T16:10:22.061Z,20.30
2019-02-27T16:12:50.319Z,20.50
2019-02-27T16:15:19.634Z,20.20
2019-02-27T16:17:47.897Z,20.20
2019-02-27T16:20:18.652Z,20.30
2019-02-27T16:22:46.897Z,20.70
2019-02-27T16:25:20.083Z,20.90
2019-02-27T16:27:48.551Z,20.60
2019-02-27T16:30:32.372Z,20.80
2019-02-27T16:33:00.025Z,21.00
2019-02-27T16:35:28.283Z,20.80
2019-02-27T16:37:57.754Z,20.90
2019-02-27T16:40:32.248Z,20.90
2019-02-27T16:43:00.618Z,21.00
2019-02-27T16:45:36.676Z,21.20
2019-02-27T16:48:03.933Z,21.30
2019-02-27T16:50:32.258Z,21.80
2019-02-27T16:53:00.554Z,22.30
2019-02-27T16:55:29.446Z,22.50
2019-02-27T16:57:58.002Z,22.80
2019-02-27T17:00:31.065Z,22.90
2019-02-27T17:02:59.584Z,23.00
2019-02-27T17:05:27.855Z,23.30
2019-02-27T17:08:00.659Z,23.30
2019-02-27T17:10:29.458Z,23.50
2019-02-27T17:12:57.938Z,23.90
2019-02-27T17:15:26.292Z,24.30
2019-02-27T17:17:54.793Z,24.40
2019-02-27T17:20:24.692Z,24.60
2019-02-27T17:22:52.960Z,24.50
2019-02-27T17:25:21.217Z,24.90
2019-02-27T17:27:51.211Z,25.10
2019-02-27T17:30:28.812Z,25.00
2019-02-27T17:32:57.066Z,25.10
2019-02-27T17:35:25.326Z,25.30
2019-02-27T17:37:53.821Z,25.40
2019-02-27T17:40:22.097Z,25.50
2019-02-27T17:42:53.474Z,25.70
2019-02-27T17:45:22.695Z,25.70
2019-02-27T17:47:50.973Z,26.00
2019-02-27T17:50:19.259Z,26.10
2019-02-27T17:52:49.065Z,26.10
2019-02-27T17:55:18.581Z,26.10
2019-02-27T17:57:46.911Z,26.10
2019-02-27T18:00:19.639Z,26.30
2019-02-27T18:02:47.929Z,26.30
2019-02-27T18:05:16.294Z,26.40
2019-02-27T18:07:44.565Z,26.40
2019-02-27T18:10:14.248Z,26.50
2019-02-27T18:12:42.585Z,26.60
2019-02-27T18:15:20.460Z,26.60
2019-02-27T18:17:48.281Z,26.60
2019-02-27T18:20:16.639Z,26.70
2019-02-27T18:22:45.911Z,26.80
2019-02-27T18:25:15.769Z,26.90
2019-02-27T18:27:44.312Z,26.90
2019-02-27T18:30:18.772Z,27.00
2019-02-27T18:32:47.875Z,27.10
2019-02-27T18:35:16.717Z,27.20
2019-02-27T18:37:44.980Z,27.30
2019-02-27T18:40:14.961Z,27.40
2019-02-27T18:42:43.349Z,27.40
2019-02-27T18:45:22.361Z,27.50
2019-02-27T18:47:50.873Z,27.50
2019-02-27T18:50:19.204Z,27.70
2019-02-27T18:52:47.690Z,27.70
2019-02-27T18:55:16.125Z,27.70
2019-02-27T18:57:47.213Z,27.80
2019-02-27T19:00:22.207Z,27.90
2019-02-27T19:02:53.199Z,27.90
2019-02-27T19:05:22.047Z,28.00
2019-02-27T19:07:53.634Z,28.10
2019-02-27T19:10:20.572Z,28.10
2019-02-27T19:12:49.055Z,28.20
2019-02-27T19:15:22.157Z,28.30
2019-02-27T19:17:50.745Z,28.40
2019-02-27T19:20:30.679Z,28.40
2019-02-27T19:23:00.331Z,28.50
2019-02-27T19:25:34.179Z,28.60
2019-02-27T19:27:59.047Z,28.60
2019-02-27T19:30:27.498Z,28.70
2019-02-27T19:33:01.558Z,28.70
2019-02-27T19:35:25.709Z,28.80
2019-02-27T19:37:53.985Z,28.80
2019-02-27T19:40:23.641Z,28.90
2019-02-27T19:42:53.817Z,29.00
2019-02-27T19:45:22.097Z,29.00
2019-02-27T19:47:54.641Z,29.00
2019-02-27T19:50:20.358Z,29.10
2019-02-27T19:52:48.869Z,29.10
2019-02-27T19:55:17.146Z,29.20
2019-02-27T19:57:45.420Z,29.20
2019-02-27T20:00:16.609Z,29.30
2019-02-27T20:02:44.867Z,29.30
2019-02-27T20:05:13.554Z,29.30
2019-02-27T20:07:41.797Z,29.40
2019-02-27T20:10:12.277Z,29.50
2019-02-27T20:12:40.790Z,29.50
2019-02-27T20:15:12.339Z,29.50
2019-02-27T20:17:40.661Z,29.60
2019-02-27T20:20:17.554Z,29.60
2019-02-27T20:22:45.837Z,29.70
2019-02-27T20:25:15.679Z,29.70
2019-02-27T20:27:44.185Z,29.80
2019-02-27T20:30:18.609Z,29.80
2019-02-27T20:32:47.224Z,29.80
2019-02-27T20:35:17.311Z,29.80
2019-02-27T20:37:45.420Z,29.90
2019-02-27T20:40:15.478Z,29.90
2019-02-27T20:42:43.851Z,29.90
2019-02-27T20:45:14.569Z,29.90
2019-02-27T20:47:42.854Z,30.00
2019-02-27T20:50:20.901Z,30.00
2019-02-27T20:52:49.493Z,30.00
2019-02-27T20:55:17.374Z,30.00
2019-02-27T20:57:45.613Z,30.00
2019-02-27T21:00:17.576Z,30.10
2019-02-27T21:02:45.820Z,30.10
2019-02-27T21:05:14.253Z,30.10
2019-02-27T21:07:42.526Z,30.20
2019-02-27T21:10:20.151Z,30.30
2019-02-27T21:12:54.051Z,30.30
2019-02-27T21:15:16.557Z,30.40
2019-02-27T21:17:44.801Z,30.40
2019-02-27T21:20:13.753Z,30.40
2019-02-27T21:22:42.256Z,30.50
2019-02-27T21:25:12.087Z,30.50
2019-02-27T21:27:41.817Z,31.20
2019-02-27T21:30:18.788Z,30.60
2019-02-27T21:32:45.501Z,30.60
2019-02-27T21:35:13.750Z,30.70
2019-02-27T21:37:45.599Z,30.70
2019-02-27T21:40:16.053Z,30.70
2019-02-27T21:42:44.285Z,30.80
2019-02-27T21:45:15.841Z,30.90
2019-02-27T21:47:44.176Z,30.90
2019-02-27T21:50:23.336Z,30.90
2019-02-27T21:52:54.301Z,31.00
2019-02-27T21:55:21.645Z,30.90
2019-02-27T21:57:49.888Z,30.90
2019-02-27T22:00:22.134Z,30.90
2019-02-27T22:02:50.449Z,30.90
2019-02-27T22:05:19.689Z,30.90
2019-02-27T22:07:48.265Z,30.90
2019-02-27T22:10:19.545Z,30.90
2019-02-27T22:12:46.926Z,30.90
2019-02-27T22:15:28.233Z,30.90
2019-02-27T22:17:56.546Z,31.00
2019-02-27T22:20:25.806Z,31.10
2019-02-27T22:22:54.813Z,31.00
2019-02-27T22:25:23.255Z,31.00
2019-02-27T22:27:51.586Z,31.10
2019-02-27T22:30:22.064Z,31.10
2019-02-27T22:32:50.326Z,31.10
2019-02-27T22:35:18.599Z,31.10
2019-02-27T22:37:50.969Z,31.10
2019-02-27T22:40:21.938Z,31.10
2019-02-27T22:42:50.223Z,31.20
2019-02-27T22:45:19.202Z,31.20
2019-02-27T22:47:47.836Z,31.20
2019-02-27T22:50:17.361Z,31.20
2019-02-27T22:52:45.670Z,31.30
2019-02-27T22:55:13.937Z,31.40
2019-02-27T22:57:42.189Z,31.40
2019-02-27T23:00:18.076Z,31.40
2019-02-27T23:02:46.603Z,31.50
2019-02-27T23:05:14.878Z,31.50
2019-02-27T23:07:43.152Z,31.60
2019-02-27T23:10:11.393Z,31.60
2019-02-27T23:12:40.148Z,31.70
2019-02-27T23:15:08.640Z,31.70
2019-02-27T23:17:36.961Z,31.80
2019-02-27T23:20:05.785Z,31.70
2019-02-27T23:22:34.053Z,31.80
2019-02-27T23:25:02.321Z,31.80
2019-02-27T23:27:30.810Z,31.80
2019-02-27T23:29:59.076Z,31.80
2019-02-27T23:32:28.617Z,31.80
2019-02-27T23:34:57.412Z,31.80
2019-02-27T23:37:29.254Z,31.80
2019-02-27T23:39:55.882Z,31.90
2019-02-27T23:42:24.144Z,31.90
2019-02-27T23:44:52.388Z,32.00
2019-02-27T23:47:20.656Z,32.00
2019-02-27T23:49:48.929Z,32.70
2019-02-27T23:52:19.240Z,32.10
2019-02-27T23:54:47.394Z,32.00
2019-02-27T23:57:15.741Z,32.10
2019-02-27T23:59:43.984Z,32.10
